Time;durP1;ratioP1;P1;durP2;ratioP2;P2;SDS_P1;SDS_P2;PMS_P1;PMS_P2;Temp;Humidity;BMP_temperature;BMP_pressure;BME280_temperature;BME280_humidity;BME280_pressure;Samples;Min_cycle;Max_cycle;Signal;HPM_P1;HPM_P2
2021/09/16 00:00:37;;;;;;;4.63;4.30;;;;;10.60;101476.00;;;;4818409;29;20059;-80
2021/09/16 00:03:06;;;;;;;0.30;0.30;;;;;10.60;101479.00;;;;4816693;29;20058;-79
2021/09/16 00:05:35;;;;;;;5.78;5.30;;;;;10.70;101453.00;;;;4818628;29;20057;-78
2021/09/16 00:08:04;;;;;;;12.80;11.57;;;;;10.70;101505.00;;;;4818454;29;20081;-77
2021/09/16 00:10:33;;;;;;;6.38;6.00;;;;;10.70;101502.00;;;;4818590;29;20083;-79
2021/09/16 00:13:02;;;;;;;17.10;15.93;;;;;10.70;101505.00;;;;4817842;29;20629;-77
2021/09/16 00:15:31;;;;;;;10.07;9.43;;;;;10.80;101507.00;;;;4818216;29;20072;-80
2021/09/16 00:18:00;;;;;;;0.20;0.20;;;;;10.80;101501.00;;;;4817886;29;20060;-77
2021/09/16 00:20:29;;;;;;;0.47;0.47;;;;;10.80;101499.00;;;;4817610;29;20522;-79
2021/09/16 00:22:58;;;;;;;207.25;184.82;;;;;10.80;101511.00;;;;4817879;29;20403;-77
2021/09/16 00:25:27;;;;;;;593.80;109.15;;;;;10.80;101492.00;;;;4817730;29;20054;-79
2021/09/16 00:27:56;;;;;;;222.35;101.93;;;;;10.70;101495.00;;;;4817400;29;20088;-78
2021/09/16 00:30:25;;;;;;;69.95;37.90;;;;;10.60;101486.00;;;;4817051;29;20054;-79
2021/09/16 00:32:54;;;;;;;5.40;5.13;;;;;10.50;101485.00;;;;4817520;29;20054;-77
2021/09/16 00:35:23;;;;;;;1999.90;999.90;;;;;10.40;101495.00;;;;4817960;29;20496;-78
2021/09/16 00:37:52;;;;;;;542.75;110.60;;;;;10.30;101495.00;;;;4818632;29;21131;-78
2021/09/16 00:40:21;;;;;;;69.70;48.03;;;;;10.30;101538.00;;;;4817931;29;20430;-78
2021/09/16 00:42:50;;;;;;;1999.90;999.90;;;;;10.10;101530.00;;;;4817620;29;20066;-78
2021/09/16 00:45:19;;;;;;;1999.90;999.90;;;;;10.00;101509.00;;;;4817880;29;20426;-77
2021/09/16 00:47:51;;;;;;;1999.90;999.90;;;;;10.00;101545.00;;;;4814598;29;20277;-77
2021/09/16 00:50:22;;;;;;;1999.90;999.90;;;;;9.80;101556.00;;;;4815681;29;20062;-78
2021/09/16 00:52:52;;;;;;;9.35;8.77;;;;;9.90;101569.00;;;;4815651;29;20065;-77
2021/09/16 00:55:23;;;;;;;4.95;4.70;;;;;9.80;101576.00;;;;4817911;29;20142;-78
2021/09/16 00:57:54;;;;;;;18.58;17.17;;;;;9.70;101589.00;;;;4817165;29;20751;-77
2021/09/16 01:00:23;;;;;;;1999.90;999.90;;;;;9.60;101566.00;;;;4817642;29;20062;-78
2021/09/16 01:02:52;;;;;;;471.40;389.17;;;;;9.60;101590.00;;;;4815131;29;20518;-79
2021/09/16 01:05:21;;;;;;;70.75;20.20;;;;;9.50;101589.00;;;;4830298;29;20427;-79
2021/09/16 01:07:50;;;;;;;1999.90;999.90;;;;;9.50;101554.00;;;;4817270;29;20073;-78
2021/09/16 01:10:19;;;;;;;267.35;239.85;;;;;9.40;101598.00;;;;4816948;29;20403;-79
2021/09/16 01:12:48;;;;;;;1559.13;802.95;;;;;9.40;101599.00;;;;4816894;29;20477;-78
2021/09/16 01:15:17;;;;;;;147.80;47.42;;;;;9.30;101589.00;;;;4816974;29;20061;-78
2021/09/16 01:17:47;;;;;;;298.25;146.70;;;;;9.30;101550.00;;;;4817071;29;20098;-79
2021/09/16 01:20:16;;;;;;;733.85;347.13;;;;;9.30;101588.00;;;;4817254;29;20055;-78
2021/09/16 01:22:45;;;;;;;1617.45;812.35;;;;;9.20;101593.00;;;;4817073;29;20165;-80
2021/09/16 01:25:14;;;;;;;126.88;105.78;;;;;9.20;101568.00;;;;4817024;29;20051;-78
2021/09/16 01:27:45;;;;;;;30.42;28.10;;;;;9.20;101586.00;;;;4817469;29;20050;-79
2021/09/16 01:30:14;;;;;;;81.43;39.13;;;;;9.20;101597.00;;;;4817611;29;20097;-78
2021/09/16 01:32:43;;;;;;;1529.63;775.17;;;;;9.10;101554.00;;;;4817327;29;20054;-78
2021/09/16 01:35:12;;;;;;;1999.90;999.90;;;;;9.10;101551.00;;;;4816965;29;20596;-79
2021/09/16 01:37:42;;;;;;;1999.90;999.90;;;;;9.10;101575.00;;;;4816447;29;20142;-79
2021/09/16 01:40:11;;;;;;;1110.97;579.05;;;;;9.10;101584.00;;;;4816616;29;20050;-78
2021/09/16 01:42:42;;;;;;;186.25;132.40;;;;;8.90;101545.00;;;;4820304;29;20550;-79
2021/09/16 01:45:17;;;;;;;1999.90;999.90;;;;;8.90;101556.00;;;;4820230;29;20057;-79
2021/09/16 01:47:47;;;;;;;231.27;197.13;;;;;8.90;101596.00;;;;4820237;29;20059;-79
2021/09/16 01:50:18;;;;;;;12.38;10.65;;;;;8.90;101559.00;;;;4820399;29;20058;-79
2021/09/16 01:52:48;;;;;;;1999.90;999.90;;;;;8.90;101561.00;;;;4820441;29;20659;-79
2021/09/16 01:55:19;;;;;;;1999.90;999.90;;;;;8.90;101565.00;;;;4820192;29;20535;-78
2021/09/16 01:57:48;;;;;;;1999.90;999.90;;;;;8.80;101603.00;;;;4820146;29;20054;-78
2021/09/16 02:00:18;;;;;;;738.53;441.63;;;;;8.80;101567.00;;;;4819766;29;20054;-79
2021/09/16 02:02:47;;;;;;;1562.13;776.47;;;;;8.80;101602.00;;;;4820148;29;20069;-80
2021/09/16 02:05:15;;;;;;;24.95;23.30;;;;;8.80;101576.00;;;;4820105;29;20533;-78
2021/09/16 02:07:44;;;;;;;1999.90;999.90;;;;;8.70;101612.00;;;;4819720;29;20062;-80
2021/09/16 02:10:13;;;;;;;1999.90;999.90;;;;;8.70;101603.00;;;;4819982;29;20050;-79
2021/09/16 02:12:42;;;;;;;1999.90;999.90;;;;;8.60;101616.00;;;;4818556;29;20150;-78
2021/09/16 02:15:11;;;;;;;1542.38;769.25;;;;;8.60;101598.00;;;;4819837;29;20055;-78
2021/09/16 02:17:40;;;;;;;114.13;103.75;;;;;8.60;101577.00;;;;4818494;29;20058;-80
2021/09/16 02:20:10;;;;;;;175.80;123.35;;;;;8.60;101598.00;;;;4819771;29;20100;-78
2021/09/16 02:22:38;;;;;;;5.85;5.50;;;;;8.60;101558.00;;;;4820340;29;20066;-79
2021/09/16 02:25:08;;;;;;;60.42;37.83;;;;;8.70;101592.00;;;;4819833;29;20057;-79
2021/09/16 02:27:37;;;;;;;431.25;235.02;;;;;8.70;101560.00;;;;4819690;29;20054;-79
2021/09/16 02:30:07;;;;;;;667.63;328.15;;;;;8.60;101596.00;;;;4819995;29;20054;-79
2021/09/16 02:32:35;;;;;;;58.47;49.38;;;;;8.60;101563.00;;;;4819644;29;20438;-77
2021/09/16 02:35:05;;;;;;;0.47;0.47;;;;;8.60;101587.00;;;;4819380;29;20489;-78
2021/09/16 02:37:34;;;;;;;1999.90;999.90;;;;;8.70;101581.00;;;;4819544;29;20056;-78
2021/09/16 02:40:05;;;;;;;79.00;45.42;;;;;8.70;101557.00;;;;4819399;29;20047;-78
2021/09/16 02:42:35;;;;;;;1999.90;999.90;;;;;8.80;101577.00;;;;4819433;29;20054;-79
2021/09/16 02:45:08;;;;;;;255.15;148.15;;;;;8.80;101574.00;;;;4819646;29;20511;-79
2021/09/16 02:47:37;;;;;;;231.52;60.75;;;;;8.70;101568.00;;;;4819564;29;20050;-78
2021/09/16 02:50:06;;;;;;;4.53;3.47;;;;;8.70;101546.00;;;;4819523;29;20438;-79
2021/09/16 02:52:35;;;;;;;218.85;154.55;;;;;8.80;101575.00;;;;4819167;29;20526;-79
2021/09/16 02:55:04;;;;;;;62.15;57.00;;;;;8.80;101574.00;;;;4819260;29;20438;-78
2021/09/16 02:57:33;;;;;;;224.07;127.82;;;;;8.80;101577.00;;;;4819364;29;20061;-78
2021/09/16 03:00:04;;;;;;;19.30;17.92;;;;;8.80;101575.00;;;;4819654;29;20054;-78
2021/09/16 03:02:32;;;;;;;404.67;143.25;;;;;8.80;101559.00;;;;4818811;29;20053;-77
2021/09/16 03:05:01;;;;;;;1229.05;595.53;;;;;8.80;101588.00;;;;4818778;29;20047;-79
2021/09/16 03:07:30;;;;;;;181.60;117.75;;;;;8.80;101572.00;;;;4819137;29;20058;-77
2021/09/16 03:10:00;;;;;;;0.10;0.10;;;;;8.80;101570.00;;;;4819513;29;20050;-78
2021/09/16 03:12:29;;;;;;;246.07;46.00;;;;;8.80;101550.00;;;;4818931;29;20428;-78
2021/09/16 03:14:58;;;;;;;7.30;6.75;;;;;8.80;101572.00;;;;4818925;29;20050;-78
2021/09/16 03:17:27;;;;;;;482.77;80.03;;;;;8.90;101538.00;;;;4817596;29;20054;-79
2021/09/16 03:19:56;;;;;;;113.07;53.05;;;;;8.90;101532.00;;;;4819061;29;20479;-77
2021/09/16 03:22:25;;;;;;;94.07;83.95;;;;;9.00;101542.00;;;;4818994;29;20507;-78
2021/09/16 03:24:53;;;;;;;1.35;0.30;;;;;9.10;101538.00;;;;4818876;29;20059;-78
2021/09/16 03:27:22;;;;;;;1308.05;645.30;;;;;9.30;101495.00;;;;4819038;29;20058;-78
2021/09/16 03:29:51;;;;;;;17.50;15.95;;;;;9.50;101523.00;;;;4818573;29;20316;-78
2021/09/16 03:32:20;;;;;;;628.47;344.92;;;;;9.70;101539.00;;;;4818790;29;20055;-78
2021/09/16 03:34:49;;;;;;;1999.90;999.90;;;;;9.90;101524.00;;;;4818627;29;20062;-78
2021/09/16 03:37:18;;;;;;;761.53;377.80;;;;;10.00;101562.00;;;;4818618;29;20054;-77
2021/09/16 03:39:47;;;;;;;1999.90;999.90;;;;;10.00;101523.00;;;;4819049;29;20051;-77
2021/09/16 03:42:16;;;;;;;1999.90;999.90;;;;;10.00;101530.00;;;;4819198;29;20069;-78
2021/09/16 03:44:44;;;;;;;288.17;134.90;;;;;10.10;101542.00;;;;4818429;29;20065;-78
2021/09/16 03:47:14;;;;;;;63.45;57.92;;;;;10.10;101561.00;;;;4818136;29;20054;-77
2021/09/16 03:49:44;;;;;;;57.75;7.22;;;;;10.10;101543.00;;;;4818457;29;20062;-78
2021/09/16 03:52:13;;;;;;;331.88;67.30;;;;;10.10;101516.00;;;;4819092;29;20054;-79
2021/09/16 03:54:42;;;;;;;51.35;36.97;;;;;10.00;101553.00;;;;4818390;29;20060;-78
2021/09/16 03:57:10;;;;;;;365.50;119.82;;;;;10.00;101519.00;;;;4818008;29;20427;-78
2021/09/16 03:59:39;;;;;;;1090.55;575.05;;;;;9.90;101534.00;;;;4817838;29;20526;-77
2021/09/16 04:02:08;;;;;;;4.70;4.25;;;;;9.80;101553.00;;;;4818575;29;20062;-79
2021/09/16 04:04:37;;;;;;;2.67;0.88;;;;;9.80;101541.00;;;;4818244;29;20109;-80
2021/09/16 04:07:06;;;;;;;8.50;6.88;;;;;9.70;101568.00;;;;4818373;29;20124;-77
2021/09/16 04:09:35;;;;;;;522.28;279.40;;;;;9.70;101557.00;;;;4818181;29;20062;-79
2021/09/16 04:12:05;;;;;;;720.55;179.77;;;;;9.80;101552.00;;;;4818030;29;20081;-78
2021/09/16 04:14:34;;;;;;;140.82;44.30;;;;;9.70;101552.00;;;;4818608;29;20446;-78
2021/09/16 04:17:03;;;;;;;158.88;115.35;;;;;9.70;101553.00;;;;4819865;29;20058;-78
2021/09/16 04:19:31;;;;;;;119.53;14.05;;;;;9.60;101584.00;;;;4820015;29;20060;-78
2021/09/16 04:22:00;;;;;;;2.22;1.55;;;;;9.50;101570.00;;;;4817934;29;20054;-79
2021/09/16 04:24:29;;;;;;;42.13;37.65;;;;;9.50;101542.00;;;;4817950;29;20058;-78
2021/09/16 04:26:58;;;;;;;7.80;7.30;;;;;9.40;101552.00;;;;4818067;29;20133;-78
2021/09/16 04:29:27;;;;;;;150.57;35.08;;;;;9.40;101537.00;;;;4818414;29;20047;-78
2021/09/16 04:31:56;;;;;;;33.67;30.75;;;;;9.40;101554.00;;;;4817856;29;20096;-78
2021/09/16 04:34:25;;;;;;;3.90;3.58;;;;;9.40;101524.00;;;;4818126;29;20050;-79
2021/09/16 04:36:55;;;;;;;34.65;5.20;;;;;9.30;101550.00;;;;4817826;29;20438;-78
2021/09/16 04:39:23;;;;;;;211.82;33.42;;;;;9.20;101514.00;;;;4817819;29;20066;-78
2021/09/16 04:41:53;;;;;;;244.55;132.18;;;;;9.20;101511.00;;;;4817475;29;20598;-78
2021/09/16 04:44:22;;;;;;;224.98;138.57;;;;;9.10;101515.00;;;;4817802;29;20442;-78
2021/09/16 04:46:51;;;;;;;185.75;58.75;;;;;9.10;101537.00;;;;4817969;29;20066;-76
2021/09/16 04:49:20;;;;;;;158.60;143.25;;;;;9.00;101517.00;;;;4817611;29;20065;-77
2021/09/16 04:51:49;;;;;;;6.40;5.88;;;;;8.90;101529.00;;;;4817483;29;20061;-78
2021/09/16 04:54:18;;;;;;;103.22;94.95;;;;;8.80;101557.00;;;;4817454;29;20058;-78
2021/09/16 04:56:47;;;;;;;84.10;76.55;;;;;8.70;101561.00;;;;4816312;29;20057;-78
2021/09/16 04:59:16;;;;;;;4.80;2.70;;;;;8.70;101541.00;;;;4817511;29;20507;-78
2021/09/16 05:01:44;;;;;;;0.70;0.25;;;;;8.60;101524.00;;;;4817803;29;20050;-79
2021/09/16 05:04:13;;;;;;;4.15;3.95;;;;;8.60;101549.00;;;;4817557;29;20069;-79
2021/09/16 05:06:42;;;;;;;1.35;0.35;;;;;8.60;101545.00;;;;4817256;29;20123;-78
2021/09/16 05:09:11;;;;;;;2.50;1.75;;;;;8.60;101529.00;;;;4817637;29;20447;-77
2021/09/16 05:11:41;;;;;;;241.57;144.70;;;;;8.60;101515.00;;;;4817361;29;20058;-78
2021/09/16 05:14:12;;;;;;;1999.90;999.90;;;;;8.50;101524.00;;;;4816944;29;20447;-78
2021/09/16 05:16:43;;;;;;;1078.28;542.55;;;;;8.50;101491.00;;;;4819335;29;20081;-78
2021/09/16 05:19:12;;;;;;;1522.40;769.97;;;;;8.60;101506.00;;;;4820881;29;20054;-79
2021/09/16 05:21:41;;;;;;;1999.90;999.90;;;;;8.60;101513.00;;;;4820965;29;20137;-78
2021/09/16 05:24:16;;;;;;;32.85;30.70;;;;;8.60;101516.00;;;;4821026;29;20577;-79
2021/09/16 05:26:46;;;;;;;1543.65;760.05;;;;;8.60;101512.00;;;;4820710;29;20058;-79
2021/09/16 05:29:15;;;;;;;51.13;47.75;;;;;8.70;101507.00;;;;4821173;29;20060;-78
2021/09/16 05:31:44;;;;;;;120.40;108.97;;;;;8.60;101481.00;;;;4820718;29;20145;-78
2021/09/16 05:34:13;;;;;;;1999.90;999.90;;;;;8.60;101512.00;;;;4821114;29;20069;-78
2021/09/16 05:36:43;;;;;;;1999.90;999.90;;;;;8.50;101516.00;;;;4820458;29;20458;-78
2021/09/16 05:39:12;;;;;;;1999.90;999.90;;;;;8.40;101504.00;;;;4820346;29;20086;-78
2021/09/16 05:41:41;;;;;;;1999.90;999.90;;;;;8.30;101518.00;;;;4820474;29;20077;-77
2021/09/16 05:44:10;;;;;;;3.67;2.08;;;;;8.20;101520.00;;;;4820703;29;20054;-77
2021/09/16 05:46:39;;;;;;;272.70;53.30;;;;;8.30;101529.00;;;;4820297;29;20051;-78
2021/09/16 05:49:08;;;;;;;0.38;0.30;;;;;8.30;101499.00;;;;4820350;29;20069;-78
2021/09/16 05:51:37;;;;;;;54.15;18.27;;;;;8.30;101493.00;;;;4818939;29;20050;-78
2021/09/16 05:54:06;;;;;;;3.75;0.68;;;;;8.30;101499.00;;;;4819044;29;20129;-78
2021/09/16 05:56:35;;;;;;;38.58;26.92;;;;;8.30;101472.00;;;;4820643;29;20058;-78
2021/09/16 05:59:04;;;;;;;551.85;262.92;;;;;8.30;101479.00;;;;4820701;29;20054;-79
2021/09/16 06:01:33;;;;;;;1.23;1.13;;;;;8.30;101515.00;;;;4820246;29;20457;-78
2021/09/16 06:04:02;;;;;;;3.70;3.42;;;;;8.30;101506.00;;;;4819763;29;20129;-78
2021/09/16 06:06:31;;;;;;;0.52;0.50;;;;;8.20;101470.00;;;;4819941;29;20063;-78
2021/09/16 06:09:00;;;;;;;128.45;85.43;;;;;8.20;101494.00;;;;4819750;29;20062;-79
2021/09/16 06:11:29;;;;;;;150.50;63.97;;;;;8.20;101481.00;;;;4820030;29;20062;-79
2021/09/16 06:13:58;;;;;;;46.03;6.97;;;;;8.20;101491.00;;;;4820124;29;20086;-78
2021/09/16 06:16:27;;;;;;;15.25;14.30;;;;;8.20;101463.00;;;;4820382;29;20050;-78
2021/09/16 06:18:56;;;;;;;4.40;4.00;;;;;8.20;101466.00;;;;4820005;29;20054;-78
2021/09/16 06:21:25;;;;;;;48.00;44.55;;;;;8.10;101489.00;;;;4820005;29;20065;-78
2021/09/16 06:23:54;;;;;;;72.43;66.75;;;;;8.20;101466.00;;;;4819964;29;20065;-76
2021/09/16 06:26:24;;;;;;;1.63;0.90;;;;;8.10;101487.00;;;;4819188;29;20534;-78
2021/09/16 06:28:53;;;;;;;0.68;0.68;;;;;8.10;101456.00;;;;4819473;29;20086;-79
2021/09/16 06:31:22;;;;;;;0.30;0.30;;;;;8.00;101470.00;;;;4818941;29;20058;-77
2021/09/16 06:33:51;;;;;;;190.00;43.53;;;;;7.90;101475.00;;;;4819560;29;20050;-78
2021/09/16 06:36:20;;;;;;;37.15;11.50;;;;;7.90;101502.00;;;;4819340;29;20046;-79
2021/09/16 06:38:49;;;;;;;1511.68;760.53;;;;;7.80;101518.00;;;;4819682;29;20059;-77
2021/09/16 06:41:18;;;;;;;185.70;105.88;;;;;7.70;101485.00;;;;4819766;29;20057;-78
2021/09/16 06:43:47;;;;;;;24.95;23.05;;;;;7.70;101500.00;;;;4819630;29;20054;-78
2021/09/16 06:46:16;;;;;;;239.93;34.38;;;;;7.60;101528.00;;;;4819610;29;20066;-78
2021/09/16 06:48:45;;;;;;;52.90;48.53;;;;;7.60;101520.00;;;;4819471;29;20051;-77
2021/09/16 06:51:14;;;;;;;21.75;20.15;;;;;7.50;101501.00;;;;4819644;29;20055;-79
2021/09/16 06:54:00;;;;;;;375.92;150.95;;;;;7.50;101537.00;;;;4819002;29;20046;-78
2021/09/16 06:56:29;;;;;;;142.05;71.80;;;;;7.50;101529.00;;;;4819056;29;20515;-78
2021/09/16 06:58:58;;;;;;;8.15;1.80;;;;;7.50;101534.00;;;;4819720;29;20050;-77
2021/09/16 07:01:27;;;;;;;9.75;9.23;;;;;7.50;101527.00;;;;4819040;29;20142;-78
2021/09/16 07:03:56;;;;;;;246.00;185.73;;;;;7.40;101544.00;;;;4819061;29;20054;-77
2021/09/16 07:06:40;;;;;;;1999.90;999.90;;;;;7.40;101556.00;;;;4818793;29;20050;-78
2021/09/16 07:09:10;;;;;;;3.53;1.30;;;;;7.40;101580.00;;;;4818667;29;20061;-78
2021/09/16 07:11:39;;;;;;;478.13;115.82;;;;;7.40;101576.00;;;;4818817;29;20082;-78
2021/09/16 07:14:09;;;;;;;8.48;7.70;;;;;7.30;101543.00;;;;4817922;29;20527;-78
2021/09/16 07:16:38;;;;;;;47.33;43.20;;;;;7.30;101541.00;;;;4817783;29;20050;-78
2021/09/16 07:19:07;;;;;;;61.45;51.30;;;;;7.30;101561.00;;;;4818498;29;20061;-78
2021/09/16 07:21:36;;;;;;;92.07;53.78;;;;;7.30;101551.00;;;;4818983;29;20050;-77
2021/09/16 07:24:07;;;;;;;2.50;2.33;;;;;7.30;101553.00;;;;4818866;29;20872;-78
2021/09/16 07:26:37;;;;;;;633.67;349.90;;;;;7.30;101566.00;;;;4819069;29;20054;-78
2021/09/16 07:29:06;;;;;;;38.45;35.95;;;;;7.20;101543.00;;;;4819454;29;20051;-77
2021/09/16 07:31:35;;;;;;;4.43;3.67;;;;;7.20;101559.00;;;;4818519;29;20515;-78
2021/09/16 07:34:05;;;;;;;5.63;0.57;;;;;7.20;101542.00;;;;4819140;29;20507;-78
2021/09/16 07:36:34;;;;;;;1.23;1.05;;;;;7.10;101534.00;;;;4818824;29;20061;-78
2021/09/16 07:39:03;;;;;;;2.13;0.65;;;;;7.10;101564.00;;;;4817977;29;20081;-78
2021/09/16 07:41:32;;;;;;;1.67;0.68;;;;;7.10;101564.00;;;;4818852;29;20090;-77
2021/09/16 07:44:02;;;;;;;0.20;0.10;;;;;7.20;101574.00;;;;4817185;29;20438;-80
2021/09/16 07:46:31;;;;;;;6.45;5.93;;;;;7.20;101572.00;;;;4818106;29;20508;-77
2021/09/16 07:49:01;;;;;;;116.30;59.15;;;;;7.20;101546.00;;;;4818613;29;20115;-78
2021/09/16 07:51:30;;;;;;;0.60;0.35;;;;;7.10;101539.00;;;;4818732;29;20057;-77
2021/09/16 07:53:59;;;;;;;16.77;15.52;;;;;7.10;101591.00;;;;4818095;29;20055;-78
2021/09/16 07:56:29;;;;;;;1.20;0.52;;;;;7.10;101602.00;;;;4818023;29;20096;-79
2021/09/16 07:58:58;;;;;;;1.95;0.63;;;;;7.10;101605.00;;;;4818874;29;20079;-78
2021/09/16 08:01:27;;;;;;;1.38;1.27;;;;;7.10;101593.00;;;;4818607;29;20065;-78
2021/09/16 08:03:57;;;;;;;1.48;1.42;;;;;7.20;101612.00;;;;4816996;29;20058;-78
2021/09/16 08:06:26;;;;;;;19.33;1.33;;;;;7.20;101572.00;;;;4817650;29;20521;-78
2021/09/16 08:08:55;;;;;;;5.60;5.28;;;;;7.10;101618.00;;;;4818325;29;20054;-76
2021/09/16 08:11:24;;;;;;;13.95;11.10;;;;;7.00;101628.00;;;;4817987;29;20392;-78
2021/09/16 08:13:53;;;;;;;0.85;0.40;;;;;7.10;101612.00;;;;4817798;29;20589;-77
2021/09/16 08:16:23;;;;;;;2.05;1.85;;;;;7.10;101597.00;;;;4818550;29;20103;-77
2021/09/16 08:18:52;;;;;;;38.47;5.63;;;;;7.20;101607.00;;;;4818127;29;20054;-77
2021/09/16 08:21:23;;;;;;;3.03;0.75;;;;;7.10;101615.00;;;;4817847;29;20070;-78
2021/09/16 08:23:52;;;;;;;4.03;1.30;;;;;7.00;101594.00;;;;4817597;29;20061;-77
2021/09/16 08:26:21;;;;;;;9.73;1.40;;;;;7.00;101598.00;;;;4818426;29;20057;-77
2021/09/16 08:28:50;;;;;;;2.45;1.52;;;;;7.10;101617.00;;;;4817947;29;20443;-77
2021/09/16 08:31:20;;;;;;;8.07;1.30;;;;;7.10;101638.00;;;;4817883;29;20050;-78
2021/09/16 08:33:49;;;;;;;3.60;1.30;;;;;7.00;101643.00;;;;4818099;29;20595;-78
2021/09/16 08:36:18;;;;;;;6.28;0.80;;;;;7.00;101621.00;;;;4817359;29;20054;-77
2021/09/16 08:38:47;;;;;;;5.03;1.08;;;;;6.90;101616.00;;;;4817876;29;20061;-77
2021/09/16 08:41:17;;;;;;;7.88;1.50;;;;;6.90;101639.00;;;;4817844;29;20050;-77
2021/09/16 08:43:49;;;;;;;3.13;2.83;;;;;6.90;101641.00;;;;4817822;29;20054;-76
2021/09/16 08:46:18;;;;;;;3.42;1.65;;;;;6.90;101639.00;;;;4817656;29;20062;-78
2021/09/16 08:48:47;;;;;;;205.52;21.80;;;;;7.00;101656.00;;;;4817463;29;20058;-77
2021/09/16 08:51:17;;;;;;;2.35;1.15;;;;;7.00;101649.00;;;;4818558;29;20430;-78
2021/09/16 08:53:48;;;;;;;6.13;1.27;;;;;7.00;101663.00;;;;4818025;29;20050;-77
2021/09/16 08:56:17;;;;;;;7.00;1.17;;;;;7.00;101676.00;;;;4817673;29;20066;-76
2021/09/16 08:58:47;;;;;;;6.55;2.13;;;;;6.90;101675.00;;;;4817442;29;20061;-78
2021/09/16 09:01:17;;;;;;;0.88;0.60;;;;;6.90;101648.00;;;;4817458;29;20058;-78
2021/09/16 09:03:46;;;;;;;1.38;1.27;;;;;6.80;101682.00;;;;4816382;29;20058;-77
2021/09/16 09:06:31;;;;;;;4.70;1.20;;;;;6.90;101669.00;;;;4817658;29;20102;-77
2021/09/16 09:09:11;;;;;;;14.07;1.15;;;;;6.90;101686.00;;;;4817576;29;20069;-77
2021/09/16 09:11:58;;;;;;;5.00;0.85;;;;;6.80;101686.00;;;;4817333;29;20065;-77
2021/09/16 09:14:36;;;;;;;4.70;4.07;;;;;6.80;101687.00;;;;4817707;29;20062;-78
2021/09/16 09:17:27;;;;;;;47.92;5.78;;;;;6.80;101698.00;;;;4817892;29;20058;-77
2021/09/16 09:20:01;;;;;;;0.00;0.00;;;;;6.90;101663.00;;;;4817465;29;20097;-77
2021/09/16 09:22:33;;;;;;;15.45;14.50;;;;;6.90;101673.00;;;;4817508;29;20408;-77
2021/09/16 09:25:10;;;;;;;1.95;0.98;;;;;6.90;101678.00;;;;4817336;29;20070;-77
2021/09/16 09:27:54;;;;;;;0.30;0.20;;;;;6.90;101665.00;;;;4817676;29;20057;-78
2021/09/16 09:30:27;;;;;;;1.10;0.70;;;;;6.90;101673.00;;;;4817394;29;20063;-78
2021/09/16 09:33:03;;;;;;;0.50;0.50;;;;;7.00;101713.00;;;;4818031;29;20438;-77
2021/09/16 09:35:43;;;;;;;0.50;0.47;;;;;7.10;101695.00;;;;4817380;29;20598;-78
2021/09/16 09:38:22;;;;;;;2.08;0.25;;;;;7.20;101707.00;;;;4816581;29;20526;-77
2021/09/16 09:40:54;;;;;;;15.40;14.40;;;;;7.20;101725.00;;;;4816605;29;20077;-77
2021/09/16 09:43:35;;;;;;;0.28;0.20;;;;;7.30;101703.00;;;;4817690;29;20054;-77
2021/09/16 09:46:17;;;;;;;0.50;0.10;;;;;7.30;101712.00;;;;4816499;29;20050;-78
2021/09/16 09:48:57;;;;;;;;;;;;;7.30;101719.00;;;;4817751;29;20073;-77
2021/09/16 09:51:45;;;;;;;1.70;1.60;;;;;7.30;101717.00;;;;4816989;29;19925;-77
2021/09/16 09:54:39;;;;;;;0.38;0.30;;;;;7.40;101724.00;;;;4817186;29;20105;-77
2021/09/16 09:57:15;;;;;;;35.70;17.33;;;;;7.50;101720.00;;;;4816338;29;20062;-77
2021/09/16 10:00:10;;;;;;;5.07;0.60;;;;;7.60;101682.00;;;;4817113;29;20061;-78
2021/09/16 10:02:50;;;;;;;1.30;0.50;;;;;7.80;101719.00;;;;4818436;29;20050;-77
2021/09/16 10:05:39;;;;;;;1.48;0.70;;;;;7.90;101711.00;;;;4820306;29;20545;-77
2021/09/16 10:08:12;;;;;;;1.40;0.65;;;;;8.30;101738.00;;;;4820157;29;20050;-76
2021/09/16 10:10:49;;;;;;;6.20;1.30;;;;;8.30;101704.00;;;;4820156;29;20058;-77
2021/09/16 10:13:19;;;;;;;4.97;1.65;;;;;8.40;101741.00;;;;4819626;29;20059;-76
2021/09/16 10:15:50;;;;;;;3.88;1.13;;;;;8.40;101703.00;;;;4820260;29;20056;-77
2021/09/16 10:18:21;;;;;;;6.03;1.27;;;;;8.50;101740.00;;;;4819423;29;20058;-75
2021/09/16 10:20:50;;;;;;;8.55;1.90;;;;;8.70;101736.00;;;;4819675;29;20060;-77
2021/09/16 10:23:19;;;;;;;0.05;0.05;;;;;8.80;101729.00;;;;4819558;29;20141;-76
2021/09/16 10:25:50;;;;;;;1.80;0.57;;;;;8.90;101696.00;;;;4818625;29;20063;-77
2021/09/16 10:28:20;;;;;;;4.32;1.23;;;;;9.00;101722.00;;;;4818459;29;20054;-77
2021/09/16 10:30:51;;;;;;;3.88;0.50;;;;;9.10;101736.00;;;;4819205;29;20073;-77
2021/09/16 10:33:24;;;;;;;2.63;0.90;;;;;9.40;101730.00;;;;4819821;29;20058;-77
2021/09/16 10:35:59;;;;;;;1999.90;999.90;;;;;9.60;101731.00;;;;4819751;29;20066;-77
2021/09/16 10:38:52;;;;;;;2.42;0.90;;;;;9.80;101722.00;;;;4819200;29;20159;-78
2021/09/16 10:41:32;;;;;;;0.13;0.10;;;;;10.00;101727.00;;;;4819084;29;20438;-76
2021/09/16 10:44:04;;;;;;;0.00;0.00;;;;;10.10;101724.00;;;;4819645;29;20086;-78
2021/09/16 10:46:43;;;;;;;0.10;0.10;;;;;10.40;101715.00;;;;4819305;29;20070;-76
2021/09/16 10:49:26;;;;;;;0.95;0.10;;;;;10.90;101735.00;;;;4819384;29;20054;-76
2021/09/16 10:51:55;;;;;;;5.47;0.93;;;;;11.30;101730.00;;;;4818936;29;20062;-77
2021/09/16 10:54:27;;;;;;;0.20;0.20;;;;;11.60;101694.00;;;;4819278;29;20058;-77
2021/09/16 10:57:12;;;;;;;0.00;0.00;;;;;11.80;101721.00;;;;4819280;29;20061;-79
2021/09/16 10:59:53;;;;;;;571.55;217.38;;;;;12.20;101723.00;;;;4819871;29;20061;-77
2021/09/16 11:02:31;;;;;;;10.30;2.30;;;;;12.60;101726.00;;;;4819738;29;20438;-77
2021/09/16 11:05:02;;;;;;;1265.47;592.78;;;;;12.90;101705.00;;;;4819182;29;20061;-78
2021/09/16 11:07:34;;;;;;;3.13;2.83;;;;;13.20;101715.00;;;;4819499;29;20054;-78
2021/09/16 11:10:16;;;;;;;19.77;18.48;;;;;14.20;101708.00;;;;4819532;29;20055;-77
2021/09/16 11:12:50;;;;;;;251.68;64.20;;;;;17.10;101594.00;;;;4818910;29;20089;-77
2021/09/16 11:15:33;;;;;;;288.00;141.13;;;;;21.50;101494.00;;;;4819480;29;20043;-78
2021/09/16 11:18:20;;;;;;;41.67;5.93;;;;;22.60;101521.00;;;;4818719;29;20472;-76
2021/09/16 11:20:55;;;;;;;800.22;284.40;;;;;22.90;101504.00;;;;4818438;29;20058;-76
2021/09/16 11:23:37;;;;;;;1513.03;758.00;;;;;23.10;101480.00;;;;4818887;29;20070;-75
2021/09/16 11:26:12;;;;;;;1513.70;762.58;;;;;23.30;101484.00;;;;4819226;29;20059;-75
2021/09/16 11:28:41;;;;;;;296.58;188.45;;;;;23.40;101470.00;;;;4819157;29;20099;-75
2021/09/16 11:31:18;;;;;;;13.55;7.25;;;;;24.30;101474.00;;;;4818562;29;20515;-75
2021/09/16 11:33:47;;;;;;;1999.90;999.90;;;;;24.20;101500.00;;;;4819018;29;20042;-76
2021/09/16 11:36:17;;;;;;;552.25;284.35;;;;;24.00;101526.00;;;;4818474;29;20050;-76
2021/09/16 11:38:46;;;;;;;0.90;0.63;;;;;24.90;101541.00;;;;4818916;29;20077;-76
2021/09/16 11:41:15;;;;;;;9.40;8.73;;;;;24.90;101553.00;;;;4818775;29;20050;-77
2021/09/16 11:43:44;;;;;;;3.70;3.47;;;;;25.50;101544.00;;;;4817916;29;20523;-76
2021/09/16 11:46:15;;;;;;;22.38;17.33;;;;;26.10;101536.00;;;;4818420;29;20066;-76
2021/09/16 11:48:44;;;;;;;1999.90;999.90;;;;;26.50;101518.00;;;;4818478;29;20115;-76
2021/09/16 11:51:13;;;;;;;1550.07;784.38;;;;;25.60;101537.00;;;;4818681;29;20061;-76
2021/09/16 11:53:42;;;;;;;3.47;1.67;;;;;24.90;101546.00;;;;4818883;29;20507;-76
2021/09/16 11:56:11;;;;;;;17.95;16.30;;;;;24.70;101549.00;;;;4818649;29;20061;-77
2021/09/16 11:58:41;;;;;;;57.80;38.75;;;;;23.50;101584.00;;;;4818269;29;20514;-77
2021/09/16 12:01:14;;;;;;;45.50;3.03;;;;;23.90;101553.00;;;;4818598;29;20058;-76
2021/09/16 12:03:57;;;;;;;54.45;6.07;;;;;23.80;101530.00;;;;4818750;29;20510;-77
2021/09/16 12:06:28;;;;;;;278.70;122.65;;;;;23.80;101522.00;;;;4818149;29;20069;-77
2021/09/16 12:08:59;;;;;;;5.78;1.70;;;;;24.20;101533.00;;;;4816226;29;20416;-76
2021/09/16 12:11:29;;;;;;;;;;;;;26.70;101546.00;;;;4814699;29;20050;-77
2021/09/16 12:14:01;;;;;;;121.22;112.43;;;;;25.20;101544.00;;;;4800404;29;19990;-76